sensor_id;sensor_type;location;lat;lon;timestamp;P1;durP1;ratioP1;P2;durP2;ratioP2
5414;SDS011;2730;51.512;7.504;2022-09-12T05:02:46;30.38;;;15.32;;
5414;SDS011;2730;51.512;7.504;2022-09-12T05:05:13;27.75;;;13.48;;
5414;SDS011;2730;51.512;7.504;2022-09-12T05:07:41;29.15;;;14.20;;
5414;SDS011;2730;51.512;7.504;2022-09-12T05:10:08;33.58;;;14.60;;
5414;SDS011;2730;51.512;7.504;2022-09-12T05:12:36;25.70;;;14.30;;
5414;SDS011;2730;51.512;7.504;2022-09-12T05:15:04;26.85;;;13.95;;
5414;SDS011;2730;51.512;7.504;2022-09-12T05:17:33;27.55;;;14.25;;
5414;SDS011;2730;51.512;7.504;2022-09-12T05:20:00;29.88;;;12.75;;
5414;SDS011;2730;51.512;7.504;2022-09-12T05:22:27;36.33;;;12.50;;
5414;SDS011;2730;51.512;7.504;2022-09-12T05:24:53;25.95;;;13.60;;
5414;SDS011;2730;51.512;7.504;2022-09-12T05:27:20;25.80;;;12.45;;
5414;SDS011;2730;51.512;7.504;2022-09-12T05:29:47;26.52;;;11.55;;
5414;SDS011;2730;51.512;7.504;2022-09-12T05:32:14;23.48;;;12.15;;
5414;SDS011;2730;51.512;7.504;2022-09-12T05:34:42;24.15;;;12.50;;
5414;SDS011;2730;51.512;7.504;2022-09-12T05:37:09;24.70;;;12.35;;
5414;SDS011;2730;51.512;7.504;2022-09-12T05:39:37;20.92;;;10.73;;
5414;SDS011;2730;51.512;7.504;2022-09-12T05:42:04;23.45;;;11.32;;
5414;SDS011;2730;51.512;7.504;2022-09-12T05:44:31;21.95;;;10.02;;
5414;SDS011;2730;51.512;7.504;2022-09-12T05:46:58;20.08;;;10.35;;
5414;SDS011;2730;51.512;7.504;2022-09-12T05:49:25;12.90;;;8.60;;
5414;SDS011;2730;51.512;7.504;2022-09-12T05:51:53;19.73;;;11.63;;
5414;SDS011;2730;51.512;7.504;2022-09-12T05:54:20;17.45;;;9.80;;
5414;SDS011;2730;51.512;7.504;2022-09-12T05:56:47;15.73;;;10.15;;
5414;SDS011;2730;51.512;7.504;2022-09-12T05:59:14;14.57;;;8.82;;
5414;SDS011;2730;51.512;7.504;2022-09-12T06:01:43;14.93;;;9.15;;
5414;SDS011;2730;51.512;7.504;2022-09-12T06:04:10;13.35;;;8.63;;
5414;SDS011;2730;51.512;7.504;2022-09-12T06:06:38;14.32;;;8.50;;
5414;SDS011;2730;51.512;7.504;2022-09-12T06:09:09;17.73;;;9.85;;
5414;SDS011;2730;51.512;7.504;2022-09-12T06:11:37;16.83;;;8.95;;
5414;SDS011;2730;51.512;7.504;2022-09-12T06:14:05;16.45;;;9.70;;
5414;SDS011;2730;51.512;7.504;2022-09-12T06:16:34;16.55;;;9.40;;
5414;SDS011;2730;51.512;7.504;2022-09-12T06:19:01;15.25;;;8.73;;
5414;SDS011;2730;51.512;7.504;2022-09-12T06:21:30;21.58;;;9.60;;
5414;SDS011;2730;51.512;7.504;2022-09-12T06:23:59;22.80;;;10.35;;
5414;SDS011;2730;51.512;7.504;2022-09-12T06:26:28;18.20;;;9.20;;
5414;SDS011;2730;51.512;7.504;2022-09-12T06:28:56;17.85;;;9.70;;
5414;SDS011;2730;51.512;7.504;2022-09-12T06:31:25;20.02;;;9.20;;
5414;SDS011;2730;51.512;7.504;2022-09-12T06:33:54;18.67;;;8.95;;
5414;SDS011;2730;51.512;7.504;2022-09-12T06:36:23;14.15;;;9.25;;
5414;SDS011;2730;51.512;7.504;2022-09-12T06:38:54;16.80;;;9.35;;
5414;SDS011;2730;51.512;7.504;2022-09-12T06:41:23;13.73;;;7.93;;
5414;SDS011;2730;51.512;7.504;2022-09-12T06:43:52;13.80;;;7.43;;
5414;SDS011;2730;51.512;7.504;2022-09-12T06:46:19;12.07;;;7.23;;
5414;SDS011;2730;51.512;7.504;2022-09-12T06:48:46;11.03;;;7.83;;
5414;SDS011;2730;51.512;7.504;2022-09-12T06:51:14;13.97;;;7.70;;
5414;SDS011;2730;51.512;7.504;2022-09-12T06:53:42;10.73;;;6.57;;
5414;SDS011;2730;51.512;7.504;2022-09-12T06:56:11;10.13;;;6.10;;
5414;SDS011;2730;51.512;7.504;2022-09-12T06:58:39;15.23;;;7.40;;
5414;SDS011;2730;51.512;7.504;2022-09-12T07:01:08;8.70;;;6.93;;
5414;SDS011;2730;51.512;7.504;2022-09-12T07:03:37;12.53;;;7.50;;
5414;SDS011;2730;51.512;7.504;2022-09-12T07:06:05;11.93;;;7.40;;
5414;SDS011;2730;51.512;7.504;2022-09-12T07:08:33;11.57;;;7.07;;
5414;SDS011;2730;51.512;7.504;2022-09-12T07:11:07;7.97;;;6.07;;
5414;SDS011;2730;51.512;7.504;2022-09-12T07:13:35;10.90;;;6.80;;
5414;SDS011;2730;51.512;7.504;2022-09-12T07:16:02;14.40;;;6.80;;
5414;SDS011;2730;51.512;7.504;2022-09-12T07:18:31;9.13;;;5.73;;
5414;SDS011;2730;51.512;7.504;2022-09-12T07:20:59;12.03;;;6.47;;
5414;SDS011;2730;51.512;7.504;2022-09-12T07:23:26;14.10;;;5.73;;
5414;SDS011;2730;51.512;7.504;2022-09-12T07:25:53;9.13;;;5.40;;
5414;SDS011;2730;51.512;7.504;2022-09-12T07:28:21;7.60;;;5.93;;
5414;SDS011;2730;51.512;7.504;2022-09-12T07:30:48;15.50;;;6.20;;
5414;SDS011;2730;51.512;7.504;2022-09-12T07:33:15;11.03;;;5.80;;
5414;SDS011;2730;51.512;7.504;2022-09-12T07:35:44;13.87;;;5.33;;
5414;SDS011;2730;51.512;7.504;2022-09-12T07:38:10;9.80;;;6.07;;
5414;SDS011;2730;51.512;7.504;2022-09-12T07:40:37;9.60;;;5.57;;
5414;SDS011;2730;51.512;7.504;2022-09-12T07:43:04;8.17;;;5.03;;
5414;SDS011;2730;51.512;7.504;2022-09-12T07:45:31;7.50;;;5.23;;
5414;SDS011;2730;51.512;7.504;2022-09-12T07:47:58;8.07;;;5.60;;
5414;SDS011;2730;51.512;7.504;2022-09-12T07:50:25;6.90;;;5.33;;
5414;SDS011;2730;51.512;7.504;2022-09-12T07:52:54;13.13;;;5.30;;
5414;SDS011;2730;51.512;7.504;2022-09-12T07:55:20;10.40;;;5.67;;
5414;SDS011;2730;51.512;7.504;2022-09-12T07:57:48;7.70;;;5.43;;
5414;SDS011;2730;51.512;7.504;2022-09-12T08:00:15;7.90;;;6.07;;
5414;SDS011;2730;51.512;7.504;2022-09-12T08:02:42;7.60;;;5.60;;
5414;SDS011;2730;51.512;7.504;2022-09-12T08:05:10;8.80;;;6.20;;
5414;SDS011;2730;51.512;7.504;2022-09-12T08:07:37;9.97;;;6.63;;
5414;SDS011;2730;51.512;7.504;2022-09-12T08:10:05;9.23;;;5.83;;
5414;SDS011;2730;51.512;7.504;2022-09-12T08:12:32;9.97;;;6.20;;
5414;SDS011;2730;51.512;7.504;2022-09-12T08:14:59;10.27;;;6.67;;
5414;SDS011;2730;51.512;7.504;2022-09-12T08:17:27;11.57;;;7.10;;
5414;SDS011;2730;51.512;7.504;2022-09-12T08:19:54;11.83;;;6.77;;
5414;SDS011;2730;51.512;7.504;2022-09-12T08:22:21;10.50;;;6.40;;
5414;SDS011;2730;51.512;7.504;2022-09-12T08:24:48;8.77;;;6.47;;
5414;SDS011;2730;51.512;7.504;2022-09-12T08:27:17;10.37;;;6.10;;
5414;SDS011;2730;51.512;7.504;2022-09-12T08:29:43;10.70;;;7.23;;
5414;SDS011;2730;51.512;7.504;2022-09-12T08:32:10;12.33;;;7.33;;
5414;SDS011;2730;51.512;7.504;2022-09-12T08:34:37;8.87;;;6.43;;
5414;SDS011;2730;51.512;7.504;2022-09-12T08:37:04;9.13;;;5.83;;
5414;SDS011;2730;51.512;7.504;2022-09-12T08:39:31;13.87;;;7.03;;
5414;SDS011;2730;51.512;7.504;2022-09-12T08:41:58;11.30;;;7.67;;
5414;SDS011;2730;51.512;7.504;2022-09-12T08:47:25;9.10;;;6.17;;
5414;SDS011;2730;51.512;7.504;2022-09-12T08:50:03;12.90;;;7.07;;
5414;SDS011;2730;51.512;7.504;2022-09-12T08:52:38;10.17;;;7.80;;
5414;SDS011;2730;51.512;7.504;2022-09-12T08:55:20;11.90;;;6.33;;
5414;SDS011;2730;51.512;7.504;2022-09-12T08:57:51;13.43;;;7.20;;
5414;SDS011;2730;51.512;7.504;2022-09-12T09:00:18;10.73;;;6.33;;
5414;SDS011;2730;51.512;7.504;2022-09-12T09:05:48;8.40;;;6.30;;
5414;SDS011;2730;51.512;7.504;2022-09-12T09:08:19;10.73;;;7.03;;
5414;SDS011;2730;51.512;7.504;2022-09-12T09:11:12;8.80;;;6.00;;
5414;SDS011;2730;51.512;7.504;2022-09-12T09:13:52;8.83;;;6.27;;
5414;SDS011;2730;51.512;7.504;2022-09-12T09:16:45;7.93;;;5.73;;
5414;SDS011;2730;51.512;7.504;2022-09-12T09:19:17;11.67;;;7.97;;
5414;SDS011;2730;51.512;7.504;2022-09-12T09:21:49;11.07;;;6.10;;
5414;SDS011;2730;51.512;7.504;2022-09-12T09:24:20;9.63;;;6.90;;
5414;SDS011;2730;51.512;7.504;2022-09-12T09:26:53;7.63;;;5.50;;
5414;SDS011;2730;51.512;7.504;2022-09-12T09:29:23;14.90;;;9.50;;
5414;SDS011;2730;51.512;7.504;2022-09-12T09:31:54;10.10;;;6.60;;
5414;SDS011;2730;51.512;7.504;2022-09-12T09:34:25;9.83;;;6.03;;
5414;SDS011;2730;51.512;7.504;2022-09-12T09:36:57;6.23;;;5.63;;
5414;SDS011;2730;51.512;7.504;2022-09-12T09:39:44;7.07;;;5.80;;
5414;SDS011;2730;51.512;7.504;2022-09-12T09:42:26;8.17;;;6.90;;
5414;SDS011;2730;51.512;7.504;2022-09-12T09:44:58;6.20;;;5.60;;
5414;SDS011;2730;51.512;7.504;2022-09-12T09:47:28;6.93;;;5.60;;
5414;SDS011;2730;51.512;7.504;2022-09-12T09:49:56;8.20;;;5.70;;
5414;SDS011;2730;51.512;7.504;2022-09-12T09:52:29;12.83;;;6.03;;
5414;SDS011;2730;51.512;7.504;2022-09-12T09:55:10;7.50;;;5.57;;
5414;SDS011;2730;51.512;7.504;2022-09-12T09:57:45;5.67;;;5.10;;
5414;SDS011;2730;51.512;7.504;2022-09-12T10:00:29;5.40;;;4.60;;
5414;SDS011;2730;51.512;7.504;2022-09-12T10:03:31;5.10;;;4.60;;
5414;SDS011;2730;51.512;7.504;2022-09-12T10:06:28;6.63;;;4.80;;
5414;SDS011;2730;51.512;7.504;2022-09-12T10:11:45;5.87;;;4.97;;
5414;SDS011;2730;51.512;7.504;2022-09-12T10:14:27;5.60;;;5.00;;
5414;SDS011;2730;51.512;7.504;2022-09-12T10:17:27;9.93;;;4.87;;
5414;SDS011;2730;51.512;7.504;2022-09-12T10:19:56;5.33;;;4.50;;
5414;SDS011;2730;51.512;7.504;2022-09-12T10:25:26;6.50;;;5.03;;
5414;SDS011;2730;51.512;7.504;2022-09-12T10:27:57;3.63;;;3.37;;
5414;SDS011;2730;51.512;7.504;2022-09-12T10:30:29;5.77;;;3.97;;
5414;SDS011;2730;51.512;7.504;2022-09-12T10:32:57;6.20;;;4.03;;
5414;SDS011;2730;51.512;7.504;2022-09-12T10:35:40;5.83;;;4.13;;
5414;SDS011;2730;51.512;7.504;2022-09-12T10:38:11;3.83;;;3.57;;
5414;SDS011;2730;51.512;7.504;2022-09-12T10:40:43;10.10;;;4.23;;
5414;SDS011;2730;51.512;7.504;2022-09-12T10:43:15;5.93;;;5.03;;
5414;SDS011;2730;51.512;7.504;2022-09-12T10:45:43;4.60;;;3.83;;
5414;SDS011;2730;51.512;7.504;2022-09-12T10:48:21;6.27;;;4.03;;
5414;SDS011;2730;51.512;7.504;2022-09-12T10:50:50;7.13;;;3.90;;
5414;SDS011;2730;51.512;7.504;2022-09-12T10:53:19;5.67;;;4.03;;
5414;SDS011;2730;51.512;7.504;2022-09-12T10:58:56;3.50;;;3.20;;
5414;SDS011;2730;51.512;7.504;2022-09-12T11:01:35;3.70;;;3.47;;
5414;SDS011;2730;51.512;7.504;2022-09-12T11:04:16;4.20;;;3.80;;
5414;SDS011;2730;51.512;7.504;2022-09-12T11:07:02;3.73;;;3.30;;
5414;SDS011;2730;51.512;7.504;2022-09-12T11:09:49;3.50;;;3.10;;
5414;SDS011;2730;51.512;7.504;2022-09-12T11:12:25;3.70;;;3.40;;
5414;SDS011;2730;51.512;7.504;2022-09-12T11:15:02;3.63;;;3.43;;
5414;SDS011;2730;51.512;7.504;2022-09-12T11:17:43;3.37;;;3.07;;
5414;SDS011;2730;51.512;7.504;2022-09-12T11:20:34;3.10;;;2.90;;
5414;SDS011;2730;51.512;7.504;2022-09-12T11:23:24;3.20;;;2.97;;
5414;SDS011;2730;51.512;7.504;2022-09-12T11:26:19;3.20;;;2.70;;
5414;SDS011;2730;51.512;7.504;2022-09-12T11:28:55;4.87;;;2.40;;
5414;SDS011;2730;51.512;7.504;2022-09-12T11:31:36;3.40;;;3.17;;
5414;SDS011;2730;51.512;7.504;2022-09-12T11:34:12;3.50;;;3.00;;
5414;SDS011;2730;51.512;7.504;2022-09-12T11:36:48;3.80;;;2.83;;
5414;SDS011;2730;51.512;7.504;2022-09-12T11:39:28;2.97;;;2.77;;
5414;SDS011;2730;51.512;7.504;2022-09-12T11:42:05;3.20;;;3.00;;
5414;SDS011;2730;51.512;7.504;2022-09-12T11:44:42;3.30;;;3.00;;
5414;SDS011;2730;51.512;7.504;2022-09-12T11:47:12;3.03;;;2.73;;
5414;SDS011;2730;51.512;7.504;2022-09-12T11:49:40;3.40;;;3.20;;
5414;SDS011;2730;51.512;7.504;2022-09-12T11:52:12;3.00;;;2.80;;
5414;SDS011;2730;51.512;7.504;2022-09-12T11:54:41;4.50;;;2.90;;
5414;SDS011;2730;51.512;7.504;2022-09-12T11:57:14;4.43;;;3.23;;
5414;SDS011;2730;51.512;7.504;2022-09-12T11:59:45;5.00;;;3.27;;
5414;SDS011;2730;51.512;7.504;2022-09-12T12:02:19;3.23;;;3.03;;
5414;SDS011;2730;51.512;7.504;2022-09-12T12:05:03;3.13;;;2.93;;
5414;SDS011;2730;51.512;7.504;2022-09-12T12:07:41;7.67;;;3.30;;
5414;SDS011;2730;51.512;7.504;2022-09-12T12:10:21;3.50;;;3.30;;
5414;SDS011;2730;51.512;7.504;2022-09-12T12:12:52;3.03;;;2.73;;
5414;SDS011;2730;51.512;7.504;2022-09-12T12:15:20;3.33;;;3.13;;
5414;SDS011;2730;51.512;7.504;2022-09-12T12:17:58;3.30;;;2.50;;
5414;SDS011;2730;51.512;7.504;2022-09-12T12:20:27;2.57;;;2.47;;
5414;SDS011;2730;51.512;7.504;2022-09-12T12:22:54;3.03;;;2.83;;
5414;SDS011;2730;51.512;7.504;2022-09-12T12:25:23;6.70;;;2.60;;
5414;SDS011;2730;51.512;7.504;2022-09-12T12:28:03;3.10;;;2.90;;
5414;SDS011;2730;51.512;7.504;2022-09-12T12:36:39;3.90;;;2.90;;
5414;SDS011;2730;51.512;7.504;2022-09-12T12:48:24;3.60;;;2.53;;
5414;SDS011;2730;51.512;7.504;2022-09-12T12:50:51;4.00;;;3.70;;
5414;SDS011;2730;51.512;7.504;2022-09-12T12:53:19;3.93;;;3.10;;
5414;SDS011;2730;51.512;7.504;2022-09-12T12:55:51;2.27;;;2.07;;
5414;SDS011;2730;51.512;7.504;2022-09-12T12:58:26;3.90;;;2.93;;
5414;SDS011;2730;51.512;7.504;2022-09-12T13:01:09;2.57;;;2.47;;
5414;SDS011;2730;51.512;7.504;2022-09-12T13:03:39;3.80;;;2.07;;
5414;SDS011;2730;51.512;7.504;2022-09-12T13:06:18;3.83;;;2.90;;
5414;SDS011;2730;51.512;7.504;2022-09-12T13:08:55;3.20;;;3.00;;
5414;SDS011;2730;51.512;7.504;2022-09-12T13:11:29;3.33;;;2.90;;
5414;SDS011;2730;51.512;7.504;2022-09-12T13:13:59;4.70;;;2.77;;
5414;SDS011;2730;51.512;7.504;2022-09-12T13:16:30;9.47;;;3.73;;
5414;SDS011;2730;51.512;7.504;2022-09-12T13:19:00;2.70;;;2.50;;
5414;SDS011;2730;51.512;7.504;2022-09-12T13:21:29;6.73;;;2.90;;
5414;SDS011;2730;51.512;7.504;2022-09-12T13:23:59;4.77;;;2.87;;
5414;SDS011;2730;51.512;7.504;2022-09-12T13:26:31;3.03;;;2.83;;
5414;SDS011;2730;51.512;7.504;2022-09-12T13:29:09;2.60;;;2.50;;
5414;SDS011;2730;51.512;7.504;2022-09-12T13:31:39;3.13;;;2.93;;
5414;SDS011;2730;51.512;7.504;2022-09-12T13:34:07;3.10;;;2.90;;
5414;SDS011;2730;51.512;7.504;2022-09-12T13:36:47;2.77;;;2.60;;
5414;SDS011;2730;51.512;7.504;2022-09-12T13:39:24;2.70;;;2.50;;
5414;SDS011;2730;51.512;7.504;2022-09-12T13:42:03;4.70;;;2.50;;
5414;SDS011;2730;51.512;7.504;2022-09-12T13:44:46;2.27;;;2.13;;
5414;SDS011;2730;51.512;7.504;2022-09-12T13:47:18;2.73;;;2.63;;
5414;SDS011;2730;51.512;7.504;2022-09-12T13:49:49;2.97;;;2.77;;
5414;SDS011;2730;51.512;7.504;2022-09-12T13:52:16;3.83;;;2.60;;
5414;SDS011;2730;51.512;7.504;2022-09-12T13:54:47;3.57;;;3.27;;
5414;SDS011;2730;51.512;7.504;2022-09-12T13:57:31;3.57;;;3.30;;
5414;SDS011;2730;51.512;7.504;2022-09-12T14:00:03;2.70;;;2.50;;
5414;SDS011;2730;51.512;7.504;2022-09-12T14:02:34;2.63;;;2.43;;
5414;SDS011;2730;51.512;7.504;2022-09-12T14:05:09;3.00;;;2.50;;
5414;SDS011;2730;51.512;7.504;2022-09-12T14:07:38;5.67;;;2.90;;
5414;SDS011;2730;51.512;7.504;2022-09-12T14:10:18;3.10;;;2.90;;
5414;SDS011;2730;51.512;7.504;2022-09-12T14:12:48;2.90;;;2.50;;
5414;SDS011;2730;51.512;7.504;2022-09-12T14:15:16;4.20;;;2.60;;
5414;SDS011;2730;51.512;7.504;2022-09-12T14:17:49;3.23;;;2.83;;
5414;SDS011;2730;51.512;7.504;2022-09-12T14:20:17;4.40;;;2.97;;
5414;SDS011;2730;51.512;7.504;2022-09-12T14:22:46;4.20;;;2.63;;
5414;SDS011;2730;51.512;7.504;2022-09-12T14:25:13;6.93;;;2.00;;
5414;SDS011;2730;51.512;7.504;2022-09-12T14:27:42;2.83;;;2.50;;
5414;SDS011;2730;51.512;7.504;2022-09-12T14:30:19;3.90;;;2.50;;
5414;SDS011;2730;51.512;7.504;2022-09-12T14:33:03;3.53;;;2.60;;
5414;SDS011;2730;51.512;7.504;2022-09-12T14:35:41;3.40;;;3.10;;
5414;SDS011;2730;51.512;7.504;2022-09-12T14:38:12;2.53;;;2.43;;
5414;SDS011;2730;51.512;7.504;2022-09-12T14:40:58;3.87;;;2.80;;
5414;SDS011;2730;51.512;7.504;2022-09-12T14:43:27;2.43;;;2.33;;
5414;SDS011;2730;51.512;7.504;2022-09-12T14:45:56;2.63;;;2.53;;
5414;SDS011;2730;51.512;7.504;2022-09-12T14:48:26;2.13;;;2.03;;
5414;SDS011;2730;51.512;7.504;2022-09-12T14:50:55;3.00;;;2.70;;
5414;SDS011;2730;51.512;7.504;2022-09-12T14:53:24;3.60;;;2.53;;
5414;SDS011;2730;51.512;7.504;2022-09-12T14:55:57;2.93;;;2.23;;
5414;SDS011;2730;51.512;7.504;2022-09-12T14:58:31;3.17;;;2.60;;
5414;SDS011;2730;51.512;7.504;2022-09-12T15:00:59;4.70;;;2.70;;
5414;SDS011;2730;51.512;7.504;2022-09-12T15:03:29;2.77;;;2.60;;
5414;SDS011;2730;51.512;7.504;2022-09-12T15:05:57;2.60;;;2.50;;
5414;SDS011;2730;51.512;7.504;2022-09-12T15:08:25;2.83;;;2.57;;
5414;SDS011;2730;51.512;7.504;2022-09-12T15:10:52;2.93;;;2.57;;
5414;SDS011;2730;51.512;7.504;2022-09-12T15:13:20;2.67;;;2.50;;
5414;SDS011;2730;51.512;7.504;2022-09-12T15:15:50;2.73;;;2.53;;
5414;SDS011;2730;51.512;7.504;2022-09-12T15:18:20;4.40;;;2.67;;
5414;SDS011;2730;51.512;7.504;2022-09-12T15:20:49;2.80;;;2.60;;
5414;SDS011;2730;51.512;7.504;2022-09-12T15:23:19;3.17;;;2.97;;
5414;SDS011;2730;51.512;7.504;2022-09-12T15:25:59;2.60;;;2.40;;
5414;SDS011;2730;51.512;7.504;2022-09-12T15:28:27;2.40;;;2.20;;
5414;SDS011;2730;51.512;7.504;2022-09-12T15:30:55;2.60;;;2.50;;
5414;SDS011;2730;51.512;7.504;2022-09-12T15:33:24;2.50;;;2.30;;
5414;SDS011;2730;51.512;7.504;2022-09-12T15:35:52;4.03;;;2.70;;
5414;SDS011;2730;51.512;7.504;2022-09-12T15:38:19;3.87;;;2.30;;
5414;SDS011;2730;51.512;7.504;2022-09-12T15:40:48;1.80;;;1.70;;
5414;SDS011;2730;51.512;7.504;2022-09-12T15:43:17;2.50;;;2.40;;
5414;SDS011;2730;51.512;7.504;2022-09-12T15:45:45;2.73;;;2.53;;
5414;SDS011;2730;51.512;7.504;2022-09-12T15:48:13;3.20;;;2.90;;
5414;SDS011;2730;51.512;7.504;2022-09-12T15:50:39;1.97;;;1.87;;
5414;SDS011;2730;51.512;7.504;2022-09-12T15:53:09;3.33;;;2.60;;
5414;SDS011;2730;51.512;7.504;2022-09-12T15:55:40;2.50;;;2.03;;
5414;SDS011;2730;51.512;7.504;2022-09-12T15:58:07;2.70;;;2.53;;
5414;SDS011;2730;51.512;7.504;2022-09-12T16:00:34;2.67;;;2.47;;
5414;SDS011;2730;51.512;7.504;2022-09-12T16:03:00;2.90;;;2.00;;
5414;SDS011;2730;51.512;7.504;2022-09-12T16:05:27;3.33;;;2.20;;
5414;SDS011;2730;51.512;7.504;2022-09-12T16:07:54;3.07;;;2.17;;
5414;SDS011;2730;51.512;7.504;2022-09-12T16:10:23;2.07;;;1.93;;
5414;SDS011;2730;51.512;7.504;2022-09-12T16:12:52;2.53;;;2.33;;
5414;SDS011;2730;51.512;7.504;2022-09-12T16:15:20;3.57;;;2.20;;
5414;SDS011;2730;51.512;7.504;2022-09-12T16:17:48;2.03;;;1.93;;
5414;SDS011;2730;51.512;7.504;2022-09-12T16:20:15;2.23;;;2.13;;
5414;SDS011;2730;51.512;7.504;2022-09-12T16:22:43;2.23;;;2.13;;
5414;SDS011;2730;51.512;7.504;2022-09-12T16:25:09;2.30;;;2.10;;
5414;SDS011;2730;51.512;7.504;2022-09-12T16:27:38;2.70;;;2.60;;
5414;SDS011;2730;51.512;7.504;2022-09-12T16:30:05;2.30;;;2.10;;
5414;SDS011;2730;51.512;7.504;2022-09-12T16:32:33;4.03;;;2.27;;
5414;SDS011;2730;51.512;7.504;2022-09-12T16:35:00;2.33;;;2.23;;
5414;SDS011;2730;51.512;7.504;2022-09-12T16:37:27;3.20;;;2.57;;
5414;SDS011;2730;51.512;7.504;2022-09-12T16:39:54;5.07;;;2.97;;
5414;SDS011;2730;51.512;7.504;2022-09-12T16:42:21;3.20;;;2.40;;
5414;SDS011;2730;51.512;7.504;2022-09-12T16:44:49;2.20;;;2.10;;
5414;SDS011;2730;51.512;7.504;2022-09-12T16:47:16;2.27;;;2.17;;
5414;SDS011;2730;51.512;7.504;2022-09-12T16:49:43;3.30;;;2.60;;
5414;SDS011;2730;51.512;7.504;2022-09-12T16:52:10;3.13;;;2.77;;
5414;SDS011;2730;51.512;7.504;2022-09-12T16:54:40;5.00;;;2.97;;
5414;SDS011;2730;51.512;7.504;2022-09-12T16:57:08;3.03;;;2.83;;
5414;SDS011;2730;51.512;7.504;2022-09-12T16:59:35;3.13;;;2.60;;
5414;SDS011;2730;51.512;7.504;2022-09-12T17:02:03;5.30;;;3.20;;
5414;SDS011;2730;51.512;7.504;2022-09-12T17:04:30;3.07;;;2.87;;
5414;SDS011;2730;51.512;7.504;2022-09-12T17:06:56;2.77;;;2.57;;
5414;SDS011;2730;51.512;7.504;2022-09-12T17:09:24;3.13;;;2.93;;
5414;SDS011;2730;51.512;7.504;2022-09-12T17:11:52;2.80;;;2.50;;
5414;SDS011;2730;51.512;7.504;2022-09-12T17:14:19;17.27;;;3.60;;
5414;SDS011;2730;51.512;7.504;2022-09-12T17:16:45;3.50;;;3.20;;
5414;SDS011;2730;51.512;7.504;2022-09-12T17:19:14;4.60;;;2.77;;
5414;SDS011;2730;51.512;7.504;2022-09-12T17:21:42;2.60;;;2.50;;
5414;SDS011;2730;51.512;7.504;2022-09-12T17:24:11;2.70;;;2.37;;
5414;SDS011;2730;51.512;7.504;2022-09-12T17:26:38;3.20;;;2.50;;
5414;SDS011;2730;51.512;7.504;2022-09-12T17:29:04;2.90;;;2.70;;
5414;SDS011;2730;51.512;7.504;2022-09-12T17:31:31;2.80;;;2.60;;
5414;SDS011;2730;51.512;7.504;2022-09-12T17:33:59;2.90;;;2.70;;
5414;SDS011;2730;51.512;7.504;2022-09-12T17:36:28;3.13;;;2.83;;
5414;SDS011;2730;51.512;7.504;2022-09-12T17:38:55;2.80;;;2.60;;
5414;SDS011;2730;51.512;7.504;2022-09-12T17:41:23;5.00;;;3.13;;
5414;SDS011;2730;51.512;7.504;2022-09-12T17:43:51;5.40;;;3.17;;
5414;SDS011;2730;51.512;7.504;2022-09-12T17:46:20;5.00;;;2.70;;
5414;SDS011;2730;51.512;7.504;2022-09-12T17:48:51;5.20;;;3.23;;
5414;SDS011;2730;51.512;7.504;2022-09-12T17:51:19;8.83;;;3.33;;
5414;SDS011;2730;51.512;7.504;2022-09-12T17:53:53;7.60;;;2.90;;
5414;SDS011;2730;51.512;7.504;2022-09-12T17:56:23;3.43;;;3.13;;
5414;SDS011;2730;51.512;7.504;2022-09-12T17:58:50;3.20;;;3.00;;
5414;SDS011;2730;51.512;7.504;2022-09-12T18:01:17;3.30;;;3.00;;
5414;SDS011;2730;51.512;7.504;2022-09-12T18:04:01;3.63;;;3.33;;
5414;SDS011;2730;51.512;7.504;2022-09-12T18:06:28;3.27;;;3.00;;
5414;SDS011;2730;51.512;7.504;2022-09-12T18:08:59;3.80;;;3.20;;
5414;SDS011;2730;51.512;7.504;2022-09-12T18:11:26;5.70;;;2.87;;
5414;SDS011;2730;51.512;7.504;2022-09-12T18:13:54;3.97;;;3.57;;
5414;SDS011;2730;51.512;7.504;2022-09-12T18:16:20;3.47;;;3.17;;
5414;SDS011;2730;51.512;7.504;2022-09-12T18:18:47;3.77;;;3.47;;
5414;SDS011;2730;51.512;7.504;2022-09-12T18:21:16;6.60;;;3.53;;
5414;SDS011;2730;51.512;7.504;2022-09-12T18:23:43;3.87;;;3.57;;
5414;SDS011;2730;51.512;7.504;2022-09-12T18:26:12;5.30;;;3.63;;
5414;SDS011;2730;51.512;7.504;2022-09-12T18:28:40;6.40;;;4.90;;
5414;SDS011;2730;51.512;7.504;2022-09-12T18:31:09;6.33;;;4.57;;
5414;SDS011;2730;51.512;7.504;2022-09-12T18:33:37;5.67;;;5.00;;
5414;SDS011;2730;51.512;7.504;2022-09-12T18:36:05;5.10;;;4.60;;
5414;SDS011;2730;51.512;7.504;2022-09-12T18:38:33;10.27;;;5.83;;
5414;SDS011;2730;51.512;7.504;2022-09-12T18:41:00;12.33;;;6.90;;
5414;SDS011;2730;51.512;7.504;2022-09-12T18:43:29;15.40;;;7.20;;
5414;SDS011;2730;51.512;7.504;2022-09-12T18:45:56;9.63;;;6.03;;
5414;SDS011;2730;51.512;7.504;2022-09-12T18:48:28;12.57;;;5.57;;
5414;SDS011;2730;51.512;7.504;2022-09-12T18:51:00;6.83;;;4.50;;
5414;SDS011;2730;51.512;7.504;2022-09-12T18:53:29;5.47;;;4.80;;
5414;SDS011;2730;51.512;7.504;2022-09-12T18:56:00;5.87;;;5.30;;
5414;SDS011;2730;51.512;7.504;2022-09-12T18:58:29;8.80;;;5.23;;
5414;SDS011;2730;51.512;7.504;2022-09-12T19:00:55;8.47;;;4.97;;
5414;SDS011;2730;51.512;7.504;2022-09-12T19:03:22;6.53;;;5.03;;
5414;SDS011;2730;51.512;7.504;2022-09-12T19:05:49;12.33;;;5.60;;
5414;SDS011;2730;51.512;7.504;2022-09-12T19:08:17;10.93;;;5.37;;
5414;SDS011;2730;51.512;7.504;2022-09-12T19:10:44;9.33;;;6.50;;
5414;SDS011;2730;51.512;7.504;2022-09-12T19:13:10;12.70;;;6.63;;
5414;SDS011;2730;51.512;7.504;2022-09-12T19:15:39;8.33;;;7.07;;
5414;SDS011;2730;51.512;7.504;2022-09-12T19:18:06;11.03;;;6.83;;
5414;SDS011;2730;51.512;7.504;2022-09-12T19:20:34;7.97;;;5.70;;
5414;SDS011;2730;51.512;7.504;2022-09-12T19:23:02;13.80;;;6.07;;
5414;SDS011;2730;51.512;7.504;2022-09-12T19:25:29;8.20;;;5.27;;
5414;SDS011;2730;51.512;7.504;2022-09-12T19:27:56;5.33;;;4.30;;
5414;SDS011;2730;51.512;7.504;2022-09-12T19:30:22;6.20;;;5.43;;
5414;SDS011;2730;51.512;7.504;2022-09-12T19:32:51;7.93;;;5.03;;
5414;SDS011;2730;51.512;7.504;2022-09-12T19:35:17;5.83;;;5.23;;
5414;SDS011;2730;51.512;7.504;2022-09-12T19:37:44;8.90;;;5.33;;
5414;SDS011;2730;51.512;7.504;2022-09-12T19:40:11;5.73;;;4.83;;
5414;SDS011;2730;51.512;7.504;2022-09-12T19:42:38;6.90;;;5.80;;
5414;SDS011;2730;51.512;7.504;2022-09-12T19:45:05;6.60;;;5.07;;
5414;SDS011;2730;51.512;7.504;2022-09-12T19:47:32;5.50;;;5.00;;
5414;SDS011;2730;51.512;7.504;2022-09-12T19:50:00;10.30;;;3.70;;
5414;SDS011;2730;51.512;7.504;2022-09-12T19:52:27;6.40;;;4.53;;
5414;SDS011;2730;51.512;7.504;2022-09-12T19:54:54;8.50;;;5.30;;
5414;SDS011;2730;51.512;7.504;2022-09-12T19:57:21;8.23;;;5.27;;
5414;SDS011;2730;51.512;7.504;2022-09-12T19:59:47;11.43;;;5.10;;
5414;SDS011;2730;51.512;7.504;2022-09-12T20:02:14;19.57;;;6.33;;
5414;SDS011;2730;51.512;7.504;2022-09-12T20:04:41;7.47;;;5.20;;
5414;SDS011;2730;51.512;7.504;2022-09-12T20:07:09;10.37;;;5.30;;
5414;SDS011;2730;51.512;7.504;2022-09-12T20:09:36;8.70;;;5.20;;
5414;SDS011;2730;51.512;7.504;2022-09-12T20:12:03;5.07;;;4.57;;
5414;SDS011;2730;51.512;7.504;2022-09-12T20:14:30;6.77;;;5.43;;
5414;SDS011;2730;51.512;7.504;2022-09-12T20:16:57;5.63;;;4.87;;
5414;SDS011;2730;51.512;7.504;2022-09-12T20:19:23;5.17;;;4.77;;
5414;SDS011;2730;51.512;7.504;2022-09-12T20:21:50;5.10;;;4.60;;
5414;SDS011;2730;51.512;7.504;2022-09-12T20:24:18;4.67;;;4.17;;
5414;SDS011;2730;51.512;7.504;2022-09-12T20:26:45;11.63;;;4.93;;
5414;SDS011;2730;51.512;7.504;2022-09-12T20:29:12;9.40;;;4.87;;
5414;SDS011;2730;51.512;7.504;2022-09-12T20:31:39;6.93;;;5.00;;
5414;SDS011;2730;51.512;7.504;2022-09-12T20:34:07;6.80;;;4.60;;
5414;SDS011;2730;51.512;7.504;2022-09-12T20:36:39;5.43;;;4.70;;
5414;SDS011;2730;51.512;7.504;2022-09-12T20:39:06;5.30;;;4.63;;
5414;SDS011;2730;51.512;7.504;2022-09-12T20:41:38;5.47;;;4.30;;
5414;SDS011;2730;51.512;7.504;2022-09-12T20:44:05;5.67;;;4.70;;
5414;SDS011;2730;51.512;7.504;2022-09-12T20:46:32;6.57;;;4.57;;
5414;SDS011;2730;51.512;7.504;2022-09-12T20:48:59;5.10;;;4.23;;
5414;SDS011;2730;51.512;7.504;2022-09-12T20:51:25;5.37;;;4.27;;
5414;SDS011;2730;51.512;7.504;2022-09-12T20:53:54;6.43;;;4.20;;
5414;SDS011;2730;51.512;7.504;2022-09-12T20:56:21;5.27;;;4.00;;
5414;SDS011;2730;51.512;7.504;2022-09-12T20:58:50;6.30;;;3.90;;
5414;SDS011;2730;51.512;7.504;2022-09-12T21:01:16;5.23;;;4.40;;